Airfield :
LOGIN :

Register | Disclaimer

   EN    FR    IT 

 










Legend :    VFR   Marginal VFR   IFR   Intensive IFR   Very Intensive IFR
Visi :
Ceiling :
>= 8 km
>= 3000ft
5 to 8 km
1000 to 3000 ft
1500m to 5 km
500 to 1000 ft
800 to 1500m
200 to 500 ft
< 800m
< 200 ft
Symbols :   Thunderstorms  Fog  Heavy snow  Heavy precipitations  Wind > 20 kt
SIGMETs :     Misc.  Thunderstorms  Icing  Turbulence  Mountain Waves  Volcanic Ashes






- Airport Elevation : 287 ft


LFRL - Lanveoc Poulmic

CURRENT METAR :
  • 021330Z AUTO 14009KT 110V170 CAVOK 14/09 Q1024 TEMPO SCT015TCU

EXPIRED METARs :
  • 021300Z AUTO 15008KT CAVOK 13/09 Q1024 NOSIG
  • 021230Z AUTO 14009KT CAVOK 14/09 Q1024 NOSIG
  • 021200Z AUTO 15008KT CAVOK 14/09 Q1024 NOSIG
  • 021130Z AUTO 15007KT 100V180 CAVOK 13/09 Q1024 TEMPO 4500 SHRA BKN015CB
  • 021100Z AUTO 16005KT 130V200 CAVOK 13/08 Q1024 TEMPO 4500 SHRA BKN015CB

TAF TAF LFRL
Valid from the 02 at 12:00 until the 03 at 12:00 UTC


021100Z 0212/0312 13010KT CAVOK
TEMPO 0215/0219 5000 -SHRA SCT015TCU
BECMG 0216/0218 BKN010
BECMG 0218/0220 4000 BR BKN006
TEMPO 0220/0312 15010G20KT 4000 SHRA BKN010TCU SCT015CB
PROB30
TEMPO 0221/0306 15010G25KT 3000 TSRA BKN010CB
TEMPO 0221/0302 BKN002
PROB40
TEMPO 0221/0302 0400 FG VV///
BECMG 0302/0304 20010KT BKN010



MET'MAP, your aeronautical weather chart ! - Copyright ORBIFLY December 2007 - Disclaimer

ORBIFLY MET'MAP TEAM :

Programming & Development : Alexandra Zaïnal
Concept & original design : Baudouin d'Aumeries
Assistance for programming : Marc-Olivier Méhu
Technical & hardware support : Manuel Goepfert

Contact : metmap@orbifly.com




SOURCES & CREDITS :

   NOAA